Chubbuck, ID (83202)

2:12 AM MST on February 08, 2016 (GMT -0700)
Tyhee | | Change Station
CLOSE
Current Station
Personal Weather Station
Location: Pocatello, ID
Elevation: 4459 ft
Nearby Weather Stations
Active Advisory: Dense Fog Advisory

Elev 4459 ft 42.98 °N, 112.46 °W | Updated 11 seconds ago

Fog
Fog
22.8 °F
Feels Like 23 °F
N
0.0
Wind Variable Wind from ESE
Gusts 0.0 mph

Today
High -- | Low -- °F
--% Chance of Precip.
Yesterday
High -- | Low -- °F
Precip. -- in
Pressure 30.78 in
Visibility 3.0 miles
Clouds Overcast 200 ft
Windchill 23 °F
Dew Point 19 °F
Humidity 84%
Rainfall 0.00 in
Snow Depth Not available.
7:37 AM 5:51 PM
Waning Crescent, 0% visible
METAR KPIH 080853Z AUTO 00000KT 3SM BR OVC002 M04/M06 A3068 RMK AO2 SLP422 I3001 T10441056 50001
Pressure 30.78 in
Visibility 3.0 miles
Clouds Overcast 200 ft
Windchill 23 °F
Dew Point 19 °F
Humidity 84%
Rainfall 0.00 in
Snow Depth Not available.
7:37 AM 5:51 PM
Waning Crescent, 0% visible
METAR KPIH 080853Z AUTO 00000KT 3SM BR OVC002 M04/M06 A3068 RMK AO2 SLP422 I3001 T10441056 50001

10-Day Weather Forecast

Almanac

Astronomy

Feb. 08, 2016 Rise Set
Actual Time
Civil Twilight
Nautical Twilight
Astronomical Twilight
Moon
Length of Visible Light
Length of Day
Tomorrow will be .
, % of the Moon is Illuminated

Today's Extremes

State Highs State Lows

Community

WunderPhotos

Upload Photos

1,891,412 photos uploaded!

WunderBlog® & News

Nearby

Air Quality

  Air Quality AQ Index Pollutant
Not available.

Snow Depth

Station Depth Elevation

Earthquake Activity

City Distance Mag. Time & Date
Minimum magnitude displayed is 2.5.

Coastal Water Temperatures

Place Temperature

Stations

Nearby Weather Stations

Station Location Temp. Windchill Dew Point Humidity Wind Precip. Elev Updated Type
                   

Watches & Warnings

Dense Fog Advisory
Issued: 8:23 PM MST Feb. 7, 2016 – National Weather Service

... Dense fog advisory in effect until noon MST Monday...

The National Weather Service in Pocatello has issued a dense fog
advisory... which is in effect until noon MST Monday.

* Visibility... widespread visibility below one mile with areas
near zero.

* Impacts... near zero visibility will cause hazardous driving
conditions. Temperatures below freezing may allow ice to deposit
on roadways.

Precautionary/preparedness actions...

A dense fog advisory means visibilities will frequently be
reduced to less than one quarter mile. If driving... slow down...
use your headlights... and leave plenty of distance ahead of you.